Terminal Aerodrome Forecast
Issued by NWS Tampa Bay Area, FL

Home | Current Version | Previous Version | Text Only | Print | Product List | Glossary Off
Versions: 1 2 3 4 5 6 7 8 9 10 11 12

774
FTUS42 KTBW 111745
TAFSRQ
TAF
KSRQ 111745Z 1118/1218 03006KT P6SM SKC
     FM111900 32006KT P6SM FEW250
     FM120100 VRB03KT P6SM SKC
     FM121400 27011G18KT P6SM SCT030 BKN250=

USA.gov is the U.S. government's official web portal to all federal, state and local government web resources and services.